sensor_id;sensor_type;location;lat;lon;timestamp;P1;durP1;ratioP1;P2;durP2;ratioP2
39956;SDS011;48483;44.640;7.494;2023-05-07T00:00:10;6.13;;;4.90;;
39956;SDS011;48483;44.640;7.494;2023-05-07T00:02:38;4.85;;;3.92;;
39956;SDS011;48483;44.640;7.494;2023-05-07T00:05:05;6.88;;;4.05;;
39956;SDS011;48483;44.640;7.494;2023-05-07T00:07:32;11.43;;;4.82;;
39956;SDS011;48483;44.640;7.494;2023-05-07T00:09:58;5.63;;;4.28;;
39956;SDS011;48483;44.640;7.494;2023-05-07T00:12:25;4.93;;;3.47;;
39956;SDS011;48483;44.640;7.494;2023-05-07T00:14:52;6.50;;;4.07;;
39956;SDS011;48483;44.640;7.494;2023-05-07T00:17:20;5.65;;;4.10;;
39956;SDS011;48483;44.640;7.494;2023-05-07T00:19:46;5.47;;;3.75;;
39956;SDS011;48483;44.640;7.494;2023-05-07T00:22:13;5.80;;;3.80;;
39956;SDS011;48483;44.640;7.494;2023-05-07T00:24:39;4.53;;;3.03;;
39956;SDS011;48483;44.640;7.494;2023-05-07T00:27:06;5.22;;;3.35;;
39956;SDS011;48483;44.640;7.494;2023-05-07T00:29:33;5.85;;;3.70;;
39956;SDS011;48483;44.640;7.494;2023-05-07T00:31:59;4.65;;;3.33;;
39956;SDS011;48483;44.640;7.494;2023-05-07T00:34:27;5.60;;;3.08;;
39956;SDS011;48483;44.640;7.494;2023-05-07T00:36:53;5.38;;;3.13;;
39956;SDS011;48483;44.640;7.494;2023-05-07T00:39:20;4.25;;;3.08;;
39956;SDS011;48483;44.640;7.494;2023-05-07T00:41:47;5.57;;;3.28;;
39956;SDS011;48483;44.640;7.494;2023-05-07T00:44:13;6.15;;;3.30;;
39956;SDS011;48483;44.640;7.494;2023-05-07T00:46:40;6.43;;;3.10;;
39956;SDS011;48483;44.640;7.494;2023-05-07T00:49:07;4.22;;;2.95;;
39956;SDS011;48483;44.640;7.494;2023-05-07T00:51:35;5.10;;;3.22;;
39956;SDS011;48483;44.640;7.494;2023-05-07T00:54:02;4.78;;;3.38;;
39956;SDS011;48483;44.640;7.494;2023-05-07T00:56:29;5.45;;;3.08;;
39956;SDS011;48483;44.640;7.494;2023-05-07T00:58:56;6.00;;;3.08;;
39956;SDS011;48483;44.640;7.494;2023-05-07T01:01:23;3.92;;;3.30;;
39956;SDS011;48483;44.640;7.494;2023-05-07T01:03:49;7.55;;;3.58;;
39956;SDS011;48483;44.640;7.494;2023-05-07T01:06:16;5.55;;;3.15;;
39956;SDS011;48483;44.640;7.494;2023-05-07T01:08:45;6.53;;;3.65;;
39956;SDS011;48483;44.640;7.494;2023-05-07T01:11:12;3.83;;;2.90;;
39956;SDS011;48483;44.640;7.494;2023-05-07T01:13:39;4.82;;;3.08;;
39956;SDS011;48483;44.640;7.494;2023-05-07T01:16:08;3.85;;;3.03;;
39956;SDS011;48483;44.640;7.494;2023-05-07T01:18:35;4.15;;;3.33;;
39956;SDS011;48483;44.640;7.494;2023-05-07T01:21:03;5.35;;;3.45;;
39956;SDS011;48483;44.640;7.494;2023-05-07T01:23:32;3.97;;;3.13;;
39956;SDS011;48483;44.640;7.494;2023-05-07T01:26:01;4.85;;;3.53;;
39956;SDS011;48483;44.640;7.494;2023-05-07T01:28:30;6.43;;;3.22;;
39956;SDS011;48483;44.640;7.494;2023-05-07T01:31:00;4.93;;;3.60;;
39956;SDS011;48483;44.640;7.494;2023-05-07T01:33:29;7.78;;;4.22;;
39956;SDS011;48483;44.640;7.494;2023-05-07T01:36:00;6.32;;;4.20;;
39956;SDS011;48483;44.640;7.494;2023-05-07T01:38:33;4.90;;;3.67;;
39956;SDS011;48483;44.640;7.494;2023-05-07T01:41:01;4.18;;;3.50;;
39956;SDS011;48483;44.640;7.494;2023-05-07T01:43:28;4.32;;;3.80;;
39956;SDS011;48483;44.640;7.494;2023-05-07T01:45:55;4.68;;;3.40;;
39956;SDS011;48483;44.640;7.494;2023-05-07T01:48:22;4.85;;;3.72;;
39956;SDS011;48483;44.640;7.494;2023-05-07T01:50:50;4.10;;;3.30;;
39956;SDS011;48483;44.640;7.494;2023-05-07T01:53:18;4.88;;;4.05;;
39956;SDS011;48483;44.640;7.494;2023-05-07T01:55:46;4.95;;;3.53;;
39956;SDS011;48483;44.640;7.494;2023-05-07T01:58:12;4.60;;;3.67;;
39956;SDS011;48483;44.640;7.494;2023-05-07T02:00:39;4.78;;;3.40;;
39956;SDS011;48483;44.640;7.494;2023-05-07T02:03:07;5.97;;;3.33;;
39956;SDS011;48483;44.640;7.494;2023-05-07T02:05:54;5.25;;;3.20;;
39956;SDS011;48483;44.640;7.494;2023-05-07T02:08:47;3.85;;;3.20;;
39956;SDS011;48483;44.640;7.494;2023-05-07T02:11:16;5.57;;;3.30;;
39956;SDS011;48483;44.640;7.494;2023-05-07T02:13:42;5.80;;;3.20;;
39956;SDS011;48483;44.640;7.494;2023-05-07T02:16:09;5.85;;;3.42;;
39956;SDS011;48483;44.640;7.494;2023-05-07T02:18:38;6.50;;;4.25;;
39956;SDS011;48483;44.640;7.494;2023-05-07T02:21:04;5.07;;;3.78;;
39956;SDS011;48483;44.640;7.494;2023-05-07T02:23:31;4.97;;;3.80;;
39956;SDS011;48483;44.640;7.494;2023-05-07T02:25:58;5.47;;;3.13;;
39956;SDS011;48483;44.640;7.494;2023-05-07T02:28:26;8.20;;;3.50;;
39956;SDS011;48483;44.640;7.494;2023-05-07T02:31:02;7.10;;;3.40;;
39956;SDS011;48483;44.640;7.494;2023-05-07T02:33:29;4.72;;;3.00;;
39956;SDS011;48483;44.640;7.494;2023-05-07T02:35:57;4.20;;;3.50;;
39956;SDS011;48483;44.640;7.494;2023-05-07T02:38:31;3.20;;;2.78;;
39956;SDS011;48483;44.640;7.494;2023-05-07T02:40:57;5.70;;;3.15;;
39956;SDS011;48483;44.640;7.494;2023-05-07T02:43:24;3.72;;;2.83;;
39956;SDS011;48483;44.640;7.494;2023-05-07T02:46:00;4.20;;;3.50;;
39956;SDS011;48483;44.640;7.494;2023-05-07T02:48:28;6.45;;;3.38;;
39956;SDS011;48483;44.640;7.494;2023-05-07T02:50:55;4.68;;;3.20;;
39956;SDS011;48483;44.640;7.494;2023-05-07T02:53:21;5.07;;;3.85;;
39956;SDS011;48483;44.640;7.494;2023-05-07T02:55:48;5.75;;;4.28;;
39956;SDS011;48483;44.640;7.494;2023-05-07T02:58:14;6.82;;;4.10;;
39956;SDS011;48483;44.640;7.494;2023-05-07T03:00:41;5.95;;;4.20;;
39956;SDS011;48483;44.640;7.494;2023-05-07T03:03:19;5.70;;;4.80;;
39956;SDS011;48483;44.640;7.494;2023-05-07T03:05:46;5.30;;;4.07;;
39956;SDS011;48483;44.640;7.494;2023-05-07T03:08:13;5.60;;;4.18;;
39956;SDS011;48483;44.640;7.494;2023-05-07T03:10:39;9.07;;;4.05;;
39956;SDS011;48483;44.640;7.494;2023-05-07T03:13:06;5.22;;;3.28;;
39956;SDS011;48483;44.640;7.494;2023-05-07T03:15:32;4.05;;;3.20;;
39956;SDS011;48483;44.640;7.494;2023-05-07T03:17:59;4.75;;;3.58;;
39956;SDS011;48483;44.640;7.494;2023-05-07T03:20:27;5.22;;;3.53;;
39956;SDS011;48483;44.640;7.494;2023-05-07T03:22:54;5.60;;;3.42;;
39956;SDS011;48483;44.640;7.494;2023-05-07T03:25:21;4.82;;;3.47;;
39956;SDS011;48483;44.640;7.494;2023-05-07T03:27:47;4.30;;;3.50;;
39956;SDS011;48483;44.640;7.494;2023-05-07T03:30:16;5.40;;;3.83;;
39956;SDS011;48483;44.640;7.494;2023-05-07T03:32:43;4.65;;;3.58;;
39956;SDS011;48483;44.640;7.494;2023-05-07T03:35:11;4.95;;;4.13;;
39956;SDS011;48483;44.640;7.494;2023-05-07T03:37:39;7.53;;;4.07;;
39956;SDS011;48483;44.640;7.494;2023-05-07T03:40:08;5.38;;;3.67;;
39956;SDS011;48483;44.640;7.494;2023-05-07T03:42:42;5.10;;;3.75;;
39956;SDS011;48483;44.640;7.494;2023-05-07T03:45:10;5.78;;;3.90;;
39956;SDS011;48483;44.640;7.494;2023-05-07T03:47:40;4.68;;;4.00;;
39956;SDS011;48483;44.640;7.494;2023-05-07T03:50:09;3.75;;;3.33;;
39956;SDS011;48483;44.640;7.494;2023-05-07T03:52:36;6.97;;;3.80;;
39956;SDS011;48483;44.640;7.494;2023-05-07T03:55:06;3.65;;;3.30;;
39956;SDS011;48483;44.640;7.494;2023-05-07T03:57:35;6.47;;;4.05;;
39956;SDS011;48483;44.640;7.494;2023-05-07T04:00:03;5.57;;;4.15;;
39956;SDS011;48483;44.640;7.494;2023-05-07T04:02:35;5.32;;;3.95;;
39956;SDS011;48483;44.640;7.494;2023-05-07T04:05:03;5.28;;;4.72;;
39956;SDS011;48483;44.640;7.494;2023-05-07T04:07:30;5.85;;;4.40;;
39956;SDS011;48483;44.640;7.494;2023-05-07T04:09:57;5.72;;;4.65;;
39956;SDS011;48483;44.640;7.494;2023-05-07T04:12:25;5.63;;;4.60;;
39956;SDS011;48483;44.640;7.494;2023-05-07T04:14:52;6.30;;;5.07;;
39956;SDS011;48483;44.640;7.494;2023-05-07T04:17:18;6.10;;;5.43;;
39956;SDS011;48483;44.640;7.494;2023-05-07T04:19:45;7.00;;;5.45;;
39956;SDS011;48483;44.640;7.494;2023-05-07T04:22:12;7.10;;;5.22;;
39956;SDS011;48483;44.640;7.494;2023-05-07T04:24:39;6.45;;;5.38;;
39956;SDS011;48483;44.640;7.494;2023-05-07T04:27:06;6.30;;;4.95;;
39956;SDS011;48483;44.640;7.494;2023-05-07T04:29:34;8.55;;;4.65;;
39956;SDS011;48483;44.640;7.494;2023-05-07T04:32:01;5.18;;;4.60;;
39956;SDS011;48483;44.640;7.494;2023-05-07T04:34:28;8.30;;;4.78;;
39956;SDS011;48483;44.640;7.494;2023-05-07T04:36:57;6.45;;;5.43;;
39956;SDS011;48483;44.640;7.494;2023-05-07T04:39:24;5.35;;;4.75;;
39956;SDS011;48483;44.640;7.494;2023-05-07T04:41:50;6.13;;;4.97;;
39956;SDS011;48483;44.640;7.494;2023-05-07T04:44:17;6.95;;;5.90;;
39956;SDS011;48483;44.640;7.494;2023-05-07T04:46:45;7.40;;;6.53;;
39956;SDS011;48483;44.640;7.494;2023-05-07T04:49:12;7.60;;;6.70;;
39956;SDS011;48483;44.640;7.494;2023-05-07T04:51:38;7.55;;;5.95;;
39956;SDS011;48483;44.640;7.494;2023-05-07T04:54:10;9.23;;;7.53;;
39956;SDS011;48483;44.640;7.494;2023-05-07T04:56:36;8.15;;;7.05;;
39956;SDS011;48483;44.640;7.494;2023-05-07T04:59:03;10.25;;;8.07;;
39956;SDS011;48483;44.640;7.494;2023-05-07T05:01:30;9.20;;;8.27;;
39956;SDS011;48483;44.640;7.494;2023-05-07T05:03:58;8.52;;;7.70;;
39956;SDS011;48483;44.640;7.494;2023-05-07T05:06:26;9.38;;;8.45;;
39956;SDS011;48483;44.640;7.494;2023-05-07T05:08:53;11.02;;;9.93;;
39956;SDS011;48483;44.640;7.494;2023-05-07T05:11:20;11.15;;;9.85;;
39956;SDS011;48483;44.640;7.494;2023-05-07T05:13:47;10.40;;;9.27;;
39956;SDS011;48483;44.640;7.494;2023-05-07T05:16:18;11.80;;;9.75;;
39956;SDS011;48483;44.640;7.494;2023-05-07T05:18:45;10.85;;;9.73;;
39956;SDS011;48483;44.640;7.494;2023-05-07T05:21:15;11.23;;;10.23;;
39956;SDS011;48483;44.640;7.494;2023-05-07T05:23:43;12.43;;;11.23;;
39956;SDS011;48483;44.640;7.494;2023-05-07T05:26:12;14.40;;;11.23;;
39956;SDS011;48483;44.640;7.494;2023-05-07T05:28:38;11.77;;;10.68;;
39956;SDS011;48483;44.640;7.494;2023-05-07T05:31:05;11.38;;;10.20;;
39956;SDS011;48483;44.640;7.494;2023-05-07T05:33:35;12.25;;;11.05;;
39956;SDS011;48483;44.640;7.494;2023-05-07T05:36:04;12.05;;;10.85;;
39956;SDS011;48483;44.640;7.494;2023-05-07T05:38:33;12.77;;;10.20;;
39956;SDS011;48483;44.640;7.494;2023-05-07T05:41:00;10.85;;;9.80;;
39956;SDS011;48483;44.640;7.494;2023-05-07T05:43:29;12.13;;;10.30;;
39956;SDS011;48483;44.640;7.494;2023-05-07T05:45:56;10.30;;;8.98;;
39956;SDS011;48483;44.640;7.494;2023-05-07T05:48:22;10.68;;;9.13;;
39956;SDS011;48483;44.640;7.494;2023-05-07T05:50:49;9.55;;;8.55;;
39956;SDS011;48483;44.640;7.494;2023-05-07T05:53:18;10.15;;;9.15;;
39956;SDS011;48483;44.640;7.494;2023-05-07T05:55:46;9.27;;;8.38;;
39956;SDS011;48483;44.640;7.494;2023-05-07T05:58:12;11.38;;;8.40;;
39956;SDS011;48483;44.640;7.494;2023-05-07T06:00:45;8.73;;;7.82;;
39956;SDS011;48483;44.640;7.494;2023-05-07T06:03:12;9.23;;;8.32;;
39956;SDS011;48483;44.640;7.494;2023-05-07T06:05:39;9.85;;;8.38;;
39956;SDS011;48483;44.640;7.494;2023-05-07T06:08:05;9.43;;;8.32;;
39956;SDS011;48483;44.640;7.494;2023-05-07T06:10:35;8.63;;;7.72;;
39956;SDS011;48483;44.640;7.494;2023-05-07T06:13:06;8.48;;;7.63;;
39956;SDS011;48483;44.640;7.494;2023-05-07T06:15:34;7.40;;;6.68;;
39956;SDS011;48483;44.640;7.494;2023-05-07T06:18:06;8.18;;;6.93;;
39956;SDS011;48483;44.640;7.494;2023-05-07T06:20:32;8.10;;;7.00;;
39956;SDS011;48483;44.640;7.494;2023-05-07T06:23:01;9.75;;;7.60;;
39956;SDS011;48483;44.640;7.494;2023-05-07T06:25:28;9.93;;;6.15;;
39956;SDS011;48483;44.640;7.494;2023-05-07T06:27:55;6.78;;;6.07;;
39956;SDS011;48483;44.640;7.494;2023-05-07T06:30:25;7.50;;;6.80;;
39956;SDS011;48483;44.640;7.494;2023-05-07T06:32:54;6.85;;;6.00;;
39956;SDS011;48483;44.640;7.494;2023-05-07T06:35:20;7.88;;;7.18;;
39956;SDS011;48483;44.640;7.494;2023-05-07T06:37:47;9.15;;;7.40;;
39956;SDS011;48483;44.640;7.494;2023-05-07T06:40:18;8.63;;;6.55;;
39956;SDS011;48483;44.640;7.494;2023-05-07T06:42:46;8.60;;;7.15;;
39956;SDS011;48483;44.640;7.494;2023-05-07T06:45:30;9.27;;;7.45;;
39956;SDS011;48483;44.640;7.494;2023-05-07T06:47:58;8.65;;;7.05;;
39956;SDS011;48483;44.640;7.494;2023-05-07T06:50:25;8.95;;;6.80;;
39956;SDS011;48483;44.640;7.494;2023-05-07T06:52:55;8.07;;;6.38;;
39956;SDS011;48483;44.640;7.494;2023-05-07T06:55:22;9.38;;;7.03;;
39956;SDS011;48483;44.640;7.494;2023-05-07T06:57:49;10.00;;;7.28;;
39956;SDS011;48483;44.640;7.494;2023-05-07T07:00:16;9.00;;;7.43;;
39956;SDS011;48483;44.640;7.494;2023-05-07T07:02:50;9.60;;;8.38;;
39956;SDS011;48483;44.640;7.494;2023-05-07T07:05:19;9.00;;;7.10;;
39956;SDS011;48483;44.640;7.494;2023-05-07T07:07:46;8.95;;;8.05;;
39956;SDS011;48483;44.640;7.494;2023-05-07T07:10:18;9.40;;;8.40;;
39956;SDS011;48483;44.640;7.494;2023-05-07T07:12:45;9.20;;;7.70;;
39956;SDS011;48483;44.640;7.494;2023-05-07T07:15:12;10.73;;;8.25;;
39956;SDS011;48483;44.640;7.494;2023-05-07T07:17:40;14.15;;;8.95;;
39956;SDS011;48483;44.640;7.494;2023-05-07T07:20:08;8.55;;;7.75;;
39956;SDS011;48483;44.640;7.494;2023-05-07T07:22:36;8.80;;;7.90;;
39956;SDS011;48483;44.640;7.494;2023-05-07T07:25:02;8.80;;;7.90;;
39956;SDS011;48483;44.640;7.494;2023-05-07T07:27:30;10.45;;;8.93;;
39956;SDS011;48483;44.640;7.494;2023-05-07T07:29:56;9.63;;;8.63;;
39956;SDS011;48483;44.640;7.494;2023-05-07T07:32:23;10.10;;;9.02;;
39956;SDS011;48483;44.640;7.494;2023-05-07T07:34:50;10.45;;;9.45;;
39956;SDS011;48483;44.640;7.494;2023-05-07T07:37:18;10.25;;;9.10;;
39956;SDS011;48483;44.640;7.494;2023-05-07T07:39:45;16.45;;;10.32;;
39956;SDS011;48483;44.640;7.494;2023-05-07T07:42:11;9.32;;;8.43;;
39956;SDS011;48483;44.640;7.494;2023-05-07T07:44:38;9.95;;;8.82;;
39956;SDS011;48483;44.640;7.494;2023-05-07T07:47:08;10.63;;;8.77;;
39956;SDS011;48483;44.640;7.494;2023-05-07T07:49:34;11.65;;;9.50;;
39956;SDS011;48483;44.640;7.494;2023-05-07T07:52:05;10.25;;;9.25;;
39956;SDS011;48483;44.640;7.494;2023-05-07T07:54:36;11.35;;;10.25;;
39956;SDS011;48483;44.640;7.494;2023-05-07T07:57:05;11.15;;;10.10;;
39956;SDS011;48483;44.640;7.494;2023-05-07T07:59:33;10.98;;;9.98;;
39956;SDS011;48483;44.640;7.494;2023-05-07T08:02:00;11.30;;;10.30;;
39956;SDS011;48483;44.640;7.494;2023-05-07T08:04:28;11.52;;;9.43;;
39956;SDS011;48483;44.640;7.494;2023-05-07T08:06:58;11.43;;;10.15;;
39956;SDS011;48483;44.640;7.494;2023-05-07T08:09:25;14.05;;;10.35;;
39956;SDS011;48483;44.640;7.494;2023-05-07T08:11:54;11.48;;;10.27;;
39956;SDS011;48483;44.640;7.494;2023-05-07T08:14:21;12.50;;;11.18;;
39956;SDS011;48483;44.640;7.494;2023-05-07T08:16:48;11.82;;;10.50;;
39956;SDS011;48483;44.640;7.494;2023-05-07T08:19:14;12.68;;;11.25;;
39956;SDS011;48483;44.640;7.494;2023-05-07T08:21:41;11.07;;;9.98;;
39956;SDS011;48483;44.640;7.494;2023-05-07T08:24:10;10.38;;;9.38;;
39956;SDS011;48483;44.640;7.494;2023-05-07T08:26:37;13.13;;;9.70;;
39956;SDS011;48483;44.640;7.494;2023-05-07T08:29:08;11.85;;;10.10;;
39956;SDS011;48483;44.640;7.494;2023-05-07T08:31:35;13.13;;;10.52;;
39956;SDS011;48483;44.640;7.494;2023-05-07T08:34:02;10.88;;;9.75;;
39956;SDS011;48483;44.640;7.494;2023-05-07T08:36:29;12.43;;;11.13;;
39956;SDS011;48483;44.640;7.494;2023-05-07T08:38:56;12.15;;;10.95;;
39956;SDS011;48483;44.640;7.494;2023-05-07T08:41:23;11.23;;;10.13;;
39956;SDS011;48483;44.640;7.494;2023-05-07T08:43:50;12.50;;;10.85;;
39956;SDS011;48483;44.640;7.494;2023-05-07T08:46:19;12.68;;;11.38;;
39956;SDS011;48483;44.640;7.494;2023-05-07T08:48:48;11.40;;;10.30;;
39956;SDS011;48483;44.640;7.494;2023-05-07T08:51:16;11.98;;;10.55;;
39956;SDS011;48483;44.640;7.494;2023-05-07T08:53:44;12.43;;;10.32;;
39956;SDS011;48483;44.640;7.494;2023-05-07T08:56:17;12.52;;;11.23;;
39956;SDS011;48483;44.640;7.494;2023-05-07T08:58:47;11.82;;;10.05;;
39956;SDS011;48483;44.640;7.494;2023-05-07T09:01:14;12.15;;;10.48;;
39956;SDS011;48483;44.640;7.494;2023-05-07T09:03:46;11.93;;;10.23;;
39956;SDS011;48483;44.640;7.494;2023-05-07T09:06:14;12.85;;;11.43;;
39956;SDS011;48483;44.640;7.494;2023-05-07T09:08:43;11.27;;;10.18;;
39956;SDS011;48483;44.640;7.494;2023-05-07T09:11:16;11.88;;;10.68;;
39956;SDS011;48483;44.640;7.494;2023-05-07T09:13:47;10.90;;;9.70;;
39956;SDS011;48483;44.640;7.494;2023-05-07T09:16:14;10.95;;;9.85;;
39956;SDS011;48483;44.640;7.494;2023-05-07T09:18:44;12.05;;;10.50;;
39956;SDS011;48483;44.640;7.494;2023-05-07T09:21:14;11.95;;;9.43;;
39956;SDS011;48483;44.640;7.494;2023-05-07T09:23:42;10.68;;;8.45;;
39956;SDS011;48483;44.640;7.494;2023-05-07T09:26:09;12.02;;;9.00;;
39956;SDS011;48483;44.640;7.494;2023-05-07T09:28:39;11.00;;;8.60;;
39956;SDS011;48483;44.640;7.494;2023-05-07T09:31:08;13.57;;;9.27;;
39956;SDS011;48483;44.640;7.494;2023-05-07T09:33:35;9.95;;;8.95;;
39956;SDS011;48483;44.640;7.494;2023-05-07T09:36:05;9.85;;;8.95;;
39956;SDS011;48483;44.640;7.494;2023-05-07T09:38:35;10.45;;;9.38;;
39956;SDS011;48483;44.640;7.494;2023-05-07T09:41:03;10.40;;;9.30;;
39956;SDS011;48483;44.640;7.494;2023-05-07T09:43:32;10.10;;;9.07;;
39956;SDS011;48483;44.640;7.494;2023-05-07T09:46:09;11.25;;;8.98;;
39956;SDS011;48483;44.640;7.494;2023-05-07T09:48:42;9.07;;;8.15;;
39956;SDS011;48483;44.640;7.494;2023-05-07T09:51:14;9.87;;;8.20;;
39956;SDS011;48483;44.640;7.494;2023-05-07T09:53:47;9.60;;;8.70;;
39956;SDS011;48483;44.640;7.494;2023-05-07T09:56:17;8.70;;;7.87;;
39956;SDS011;48483;44.640;7.494;2023-05-07T09:58:44;8.90;;;8.00;;
39956;SDS011;48483;44.640;7.494;2023-05-07T10:01:13;8.48;;;7.57;;
39956;SDS011;48483;44.640;7.494;2023-05-07T10:03:41;9.50;;;8.60;;
39956;SDS011;48483;44.640;7.494;2023-05-07T10:06:10;8.85;;;8.00;;
39956;SDS011;48483;44.640;7.494;2023-05-07T10:08:39;9.80;;;7.22;;
39956;SDS011;48483;44.640;7.494;2023-05-07T10:11:07;9.03;;;7.53;;
39956;SDS011;48483;44.640;7.494;2023-05-07T10:13:36;7.70;;;6.90;;
39956;SDS011;48483;44.640;7.494;2023-05-07T10:16:05;9.82;;;8.50;;
39956;SDS011;48483;44.640;7.494;2023-05-07T10:18:38;9.52;;;8.20;;
39956;SDS011;48483;44.640;7.494;2023-05-07T10:21:14;9.32;;;8.38;;
39956;SDS011;48483;44.640;7.494;2023-05-07T10:23:47;10.52;;;9.40;;
39956;SDS011;48483;44.640;7.494;2023-05-07T10:26:17;10.27;;;9.27;;
39956;SDS011;48483;44.640;7.494;2023-05-07T10:28:48;10.15;;;8.57;;
39956;SDS011;48483;44.640;7.494;2023-05-07T10:31:23;11.00;;;9.40;;
39956;SDS011;48483;44.640;7.494;2023-05-07T10:34:07;9.40;;;8.50;;
39956;SDS011;48483;44.640;7.494;2023-05-07T10:36:36;10.40;;;9.40;;
39956;SDS011;48483;44.640;7.494;2023-05-07T10:39:04;9.73;;;8.30;;
39956;SDS011;48483;44.640;7.494;2023-05-07T10:41:33;10.67;;;9.17;;
39956;SDS011;48483;44.640;7.494;2023-05-07T10:43:59;10.48;;;9.32;;
39956;SDS011;48483;44.640;7.494;2023-05-07T10:46:30;11.50;;;8.23;;
39956;SDS011;48483;44.640;7.494;2023-05-07T10:49:07;10.20;;;8.45;;
39956;SDS011;48483;44.640;7.494;2023-05-07T10:51:53;10.20;;;9.13;;
39956;SDS011;48483;44.640;7.494;2023-05-07T10:54:39;11.23;;;10.13;;
39956;SDS011;48483;44.640;7.494;2023-05-07T10:57:32;10.50;;;9.00;;
39956;SDS011;48483;44.640;7.494;2023-05-07T11:03:11;14.40;;;10.20;;
39956;SDS011;48483;44.640;7.494;2023-05-07T11:05:44;11.25;;;10.05;;
39956;SDS011;48483;44.640;7.494;2023-05-07T11:08:23;10.85;;;9.80;;
39956;SDS011;48483;44.640;7.494;2023-05-07T11:10:57;8.77;;;7.55;;
39956;SDS011;48483;44.640;7.494;2023-05-07T11:13:45;10.55;;;8.85;;
39956;SDS011;48483;44.640;7.494;2023-05-07T11:16:33;9.82;;;8.10;;
39956;SDS011;48483;44.640;7.494;2023-05-07T11:19:17;10.13;;;9.13;;
39956;SDS011;48483;44.640;7.494;2023-05-07T11:21:48;9.95;;;8.95;;
39956;SDS011;48483;44.640;7.494;2023-05-07T11:24:37;9.48;;;8.57;;
39956;SDS011;48483;44.640;7.494;2023-05-07T11:27:07;9.32;;;8.13;;
39956;SDS011;48483;44.640;7.494;2023-05-07T11:29:34;9.10;;;7.80;;
39956;SDS011;48483;44.640;7.494;2023-05-07T11:32:08;8.38;;;7.47;;
39956;SDS011;48483;44.640;7.494;2023-05-07T11:34:44;9.60;;;8.68;;
39956;SDS011;48483;44.640;7.494;2023-05-07T11:37:16;9.70;;;8.80;;
39956;SDS011;48483;44.640;7.494;2023-05-07T11:39:50;10.90;;;9.85;;
39956;SDS011;48483;44.640;7.494;2023-05-07T11:44:55;11.35;;;9.60;;
39956;SDS011;48483;44.640;7.494;2023-05-07T11:47:22;9.07;;;7.40;;
39956;SDS011;48483;44.640;7.494;2023-05-07T11:49:49;10.55;;;8.48;;
39956;SDS011;48483;44.640;7.494;2023-05-07T11:52:16;8.68;;;7.85;;
39956;SDS011;48483;44.640;7.494;2023-05-07T11:54:48;13.02;;;8.40;;
39956;SDS011;48483;44.640;7.494;2023-05-07T11:57:15;9.88;;;8.80;;
39956;SDS011;48483;44.640;7.494;2023-05-07T11:59:43;8.38;;;7.50;;
39956;SDS011;48483;44.640;7.494;2023-05-07T12:02:15;8.85;;;7.90;;
39956;SDS011;48483;44.640;7.494;2023-05-07T12:04:42;9.80;;;8.73;;
39956;SDS011;48483;44.640;7.494;2023-05-07T12:07:11;9.52;;;8.48;;
39956;SDS011;48483;44.640;7.494;2023-05-07T12:09:38;9.68;;;8.77;;
39956;SDS011;48483;44.640;7.494;2023-05-07T12:12:05;10.13;;;9.13;;
39956;SDS011;48483;44.640;7.494;2023-05-07T12:14:32;9.57;;;8.57;;
39956;SDS011;48483;44.640;7.494;2023-05-07T12:17:04;11.02;;;9.20;;
39956;SDS011;48483;44.640;7.494;2023-05-07T12:19:31;9.75;;;8.80;;
39956;SDS011;48483;44.640;7.494;2023-05-07T12:21:59;11.02;;;9.68;;
39956;SDS011;48483;44.640;7.494;2023-05-07T12:24:26;10.02;;;8.82;;
39956;SDS011;48483;44.640;7.494;2023-05-07T12:26:53;10.40;;;9.45;;
39956;SDS011;48483;44.640;7.494;2023-05-07T12:29:21;9.98;;;8.98;;
39956;SDS011;48483;44.640;7.494;2023-05-07T12:31:49;9.82;;;8.90;;
39956;SDS011;48483;44.640;7.494;2023-05-07T12:34:17;10.23;;;8.93;;
39956;SDS011;48483;44.640;7.494;2023-05-07T12:36:44;10.98;;;9.80;;
39956;SDS011;48483;44.640;7.494;2023-05-07T12:39:10;12.60;;;11.10;;
39956;SDS011;48483;44.640;7.494;2023-05-07T12:41:51;11.73;;;10.60;;
39956;SDS011;48483;44.640;7.494;2023-05-07T12:44:21;12.50;;;11.27;;
39956;SDS011;48483;44.640;7.494;2023-05-07T12:46:49;12.65;;;11.38;;
39956;SDS011;48483;44.640;7.494;2023-05-07T12:49:17;14.15;;;12.65;;
39956;SDS011;48483;44.640;7.494;2023-05-07T12:51:44;15.88;;;14.18;;
39956;SDS011;48483;44.640;7.494;2023-05-07T12:54:13;14.43;;;12.93;;
39956;SDS011;48483;44.640;7.494;2023-05-07T12:56:40;13.75;;;12.50;;
39956;SDS011;48483;44.640;7.494;2023-05-07T12:59:06;15.30;;;13.10;;
39956;SDS011;48483;44.640;7.494;2023-05-07T13:01:33;14.40;;;13.02;;
39956;SDS011;48483;44.640;7.494;2023-05-07T13:04:00;14.20;;;12.77;;
39956;SDS011;48483;44.640;7.494;2023-05-07T13:06:30;14.55;;;13.00;;
39956;SDS011;48483;44.640;7.494;2023-05-07T13:08:57;13.43;;;12.13;;
39956;SDS011;48483;44.640;7.494;2023-05-07T13:11:23;13.48;;;12.23;;
39956;SDS011;48483;44.640;7.494;2023-05-07T13:13:50;13.73;;;12.40;;
39956;SDS011;48483;44.640;7.494;2023-05-07T13:16:17;16.92;;;13.55;;
39956;SDS011;48483;44.640;7.494;2023-05-07T13:18:43;14.40;;;12.90;;
39956;SDS011;48483;44.640;7.494;2023-05-07T13:21:11;16.73;;;13.80;;
39956;SDS011;48483;44.640;7.494;2023-05-07T13:23:40;14.85;;;13.45;;
39956;SDS011;48483;44.640;7.494;2023-05-07T13:26:06;14.10;;;12.70;;
39956;SDS011;48483;44.640;7.494;2023-05-07T13:28:33;15.02;;;13.50;;
39956;SDS011;48483;44.640;7.494;2023-05-07T13:31:00;13.88;;;12.57;;
39956;SDS011;48483;44.640;7.494;2023-05-07T13:33:26;15.88;;;14.02;;
39956;SDS011;48483;44.640;7.494;2023-05-07T13:35:53;15.70;;;14.20;;
39956;SDS011;48483;44.640;7.494;2023-05-07T13:38:19;14.10;;;12.45;;
39956;SDS011;48483;44.640;7.494;2023-05-07T13:40:47;12.57;;;11.25;;
39956;SDS011;48483;44.640;7.494;2023-05-07T13:43:14;10.15;;;8.88;;
39956;SDS011;48483;44.640;7.494;2023-05-07T13:45:43;11.55;;;10.20;;
39956;SDS011;48483;44.640;7.494;2023-05-07T13:48:09;11.07;;;9.48;;
39956;SDS011;48483;44.640;7.494;2023-05-07T13:50:36;11.45;;;10.27;;
39956;SDS011;48483;44.640;7.494;2023-05-07T13:53:02;10.73;;;9.68;;
39956;SDS011;48483;44.640;7.494;2023-05-07T13:55:29;11.43;;;10.30;;
39956;SDS011;48483;44.640;7.494;2023-05-07T13:57:57;11.90;;;10.77;;
39956;SDS011;48483;44.640;7.494;2023-05-07T14:00:25;11.55;;;10.35;;
39956;SDS011;48483;44.640;7.494;2023-05-07T14:02:53;12.40;;;11.02;;
39956;SDS011;48483;44.640;7.494;2023-05-07T14:05:20;11.93;;;10.68;;
39956;SDS011;48483;44.640;7.494;2023-05-07T14:07:48;10.73;;;9.63;;
39956;SDS011;48483;44.640;7.494;2023-05-07T14:10:17;11.45;;;10.30;;
39956;SDS011;48483;44.640;7.494;2023-05-07T14:12:44;10.50;;;9.50;;
39956;SDS011;48483;44.640;7.494;2023-05-07T14:15:14;12.25;;;11.05;;
39956;SDS011;48483;44.640;7.494;2023-05-07T14:17:41;12.35;;;9.43;;
39956;SDS011;48483;44.640;7.494;2023-05-07T14:20:08;12.90;;;10.95;;
39956;SDS011;48483;44.640;7.494;2023-05-07T14:22:36;12.40;;;11.20;;
39956;SDS011;48483;44.640;7.494;2023-05-07T14:25:03;12.30;;;10.98;;
39956;SDS011;48483;44.640;7.494;2023-05-07T14:27:31;12.57;;;10.75;;
39956;SDS011;48483;44.640;7.494;2023-05-07T14:29:57;11.95;;;10.65;;
39956;SDS011;48483;44.640;7.494;2023-05-07T14:32:25;14.35;;;12.95;;
39956;SDS011;48483;44.640;7.494;2023-05-07T14:34:52;13.40;;;12.05;;
39956;SDS011;48483;44.640;7.494;2023-05-07T14:37:18;13.82;;;11.43;;
39956;SDS011;48483;44.640;7.494;2023-05-07T14:39:45;14.02;;;12.48;;
39956;SDS011;48483;44.640;7.494;2023-05-07T14:42:12;13.57;;;12.32;;
39956;SDS011;48483;44.640;7.494;2023-05-07T14:44:38;13.52;;;12.13;;
39956;SDS011;48483;44.640;7.494;2023-05-07T14:47:07;13.27;;;11.68;;
39956;SDS011;48483;44.640;7.494;2023-05-07T14:49:35;12.90;;;11.60;;
39956;SDS011;48483;44.640;7.494;2023-05-07T14:52:02;13.20;;;11.27;;